KMGG

Maple Lake Municipal-Bill Mavencamp Sr Field Airport

Maple Lake, Minnesota, USA
METAR KMGG 241336Z AUTO 19003KT 10SM SCT085 BKN110 24/19 A3003 RMK AO2 T02410190
Observed Flight Rules
May-24 @ 13:36 UTC (16 minutes ago) Visual Flight Rules
Wind Visibility Clouds
190° at 3 knots 10 miles
  • Scattered at 8,500' AGL
  • Broken at 11,000' AGL
Temperatures Readings
Current 24°C / 75°F
Dewpoint 19°C / 66°F
Humidity 74%
Altimeter 30.03" Hg
Pressure 1017 hPa
Elevation 313
METAR KMGG 241336Z AUTO 19003KT 10SM SCT085 BKN110 24/19 A3003 RMK AO2 T02410190
Observed Flight Rules
May-24 @ 13:36 UTC
(16 minutes ago)
VFR
Wind Visibility
190° at 3 knots 10 miles
Clouds
  • Scattered at 8,500' AGL
  • Broken at 11,000' AGL
Temperature Dewpoint
24°C / 75°F 19°C / 66°F
Humidity Altimeter Pressure
74% 30.03" Hg 1017 hPa